Terminal Aerodrome Forecast
Issued by NWS Wilmington, OH

Current Version | Previous Version | Text Only | Print | Product List | Glossary Off
Versions: 1 2 3 4 5 6 7 8 9 10 11 12 13 14 15 16 17 18 19 20 21 22 23 24 25 26 27 28 29 30 31 32 33

000
FTUS41 KILN 302115 AAC
TAFCMH
TAF AMD
KCMH 302115Z 3021/0118 36005KT P6SM -SHRA SCT012 BKN035
     FM302200 12007KT P6SM VCSH BKN025
      TEMPO 3022/3024 4SM BR BKN015
     FM010100 VRB04KT P6SM BKN035
     FM010600 14004KT P6SM BKN025
      TEMPO 0111/0113 4SM BR BKN015
     FM011500 12006KT 5SM BR VCSH OVC012=

USA.gov is the U.S. government's official web portal to all federal, state and local government web resources and services.